sensor_id;sensor_type;location;lat;lon;timestamp;pressure;altitude;pressure_sealevel;temperature;humidity
60345;BME280;46188;52.324;8.032;2023-12-14T00:01:22;99674.16;;;5.29;100.00
60345;BME280;46188;52.324;8.032;2023-12-14T00:03:48;99668.22;;;5.36;100.00
60345;BME280;46188;52.324;8.032;2023-12-14T00:06:13;99669.94;;;5.36;100.00
60345;BME280;46188;52.324;8.032;2023-12-14T00:08:39;99669.09;;;5.37;100.00
60345;BME280;46188;52.324;8.032;2023-12-14T00:11:08;99668.06;;;5.29;100.00
60345;BME280;46188;52.324;8.032;2023-12-14T00:13:33;99679.22;;;5.20;100.00
60345;BME280;46188;52.324;8.032;2023-12-14T00:15:58;99686.38;;;5.29;100.00
60345;BME280;46188;52.324;8.032;2023-12-14T00:18:23;99689.97;;;5.35;100.00
60345;BME280;46188;52.324;8.032;2023-12-14T00:20:49;99691.69;;;5.33;100.00
60345;BME280;46188;52.324;8.032;2023-12-14T00:23:14;99693.28;;;5.27;100.00
60345;BME280;46188;52.324;8.032;2023-12-14T00:25:39;99707.28;;;5.29;100.00
60345;BME280;46188;52.324;8.032;2023-12-14T00:28:04;99702.91;;;5.29;100.00
60345;BME280;46188;52.324;8.032;2023-12-14T00:30:29;99712.06;;;5.07;100.00
60345;BME280;46188;52.324;8.032;2023-12-14T00:32:55;99714.75;;;5.10;100.00
60345;BME280;46188;52.324;8.032;2023-12-14T00:35:20;99711.25;;;5.11;100.00
60345;BME280;46188;52.324;8.032;2023-12-14T00:37:45;99727.03;;;5.16;100.00
60345;BME280;46188;52.324;8.032;2023-12-14T00:40:10;99731.41;;;5.17;100.00
60345;BME280;46188;52.324;8.032;2023-12-14T00:42:35;99735.81;;;5.20;100.00
60345;BME280;46188;52.324;8.032;2023-12-14T00:45:01;99731.59;;;5.25;100.00
60345;BME280;46188;52.324;8.032;2023-12-14T00:47:26;99723.72;;;5.23;100.00
60345;BME280;46188;52.324;8.032;2023-12-14T00:49:51;99727.97;;;5.20;100.00
60345;BME280;46188;52.324;8.032;2023-12-14T00:52:16;99732.97;;;5.07;100.00
60345;BME280;46188;52.324;8.032;2023-12-14T00:54:41;99740.75;;;5.06;100.00
60345;BME280;46188;52.324;8.032;2023-12-14T00:57:06;99737.34;;;5.08;100.00
60345;BME280;46188;52.324;8.032;2023-12-14T00:59:31;99744.22;;;5.03;100.00
60345;BME280;46188;52.324;8.032;2023-12-14T01:01:57;99751.34;;;5.12;100.00
60345;BME280;46188;52.324;8.032;2023-12-14T01:04:22;99754.06;;;5.16;100.00
60345;BME280;46188;52.324;8.032;2023-12-14T01:06:47;99761.72;;;5.09;100.00
60345;BME280;46188;52.324;8.032;2023-12-14T01:09:12;99771.50;;;5.17;100.00
60345;BME280;46188;52.324;8.032;2023-12-14T01:11:37;99778.34;;;5.12;100.00
60345;BME280;46188;52.324;8.032;2023-12-14T01:14:03;99788.00;;;5.15;100.00
60345;BME280;46188;52.324;8.032;2023-12-14T01:16:29;99794.03;;;5.12;100.00
60345;BME280;46188;52.324;8.032;2023-12-14T01:18:54;99800.84;;;5.06;100.00
60345;BME280;46188;52.324;8.032;2023-12-14T01:21:19;99806.84;;;5.02;100.00
60345;BME280;46188;52.324;8.032;2023-12-14T01:23:44;99813.06;;;5.07;100.00
60345;BME280;46188;52.324;8.032;2023-12-14T01:26:09;99812.19;;;5.08;100.00
60345;BME280;46188;52.324;8.032;2023-12-14T01:28:34;99826.94;;;5.04;100.00
60345;BME280;46188;52.324;8.032;2023-12-14T01:31:00;99829.63;;;5.07;100.00
60345;BME280;46188;52.324;8.032;2023-12-14T01:33:25;99833.94;;;5.05;100.00
60345;BME280;46188;52.324;8.032;2023-12-14T01:35:50;99835.34;;;4.91;100.00
60345;BME280;46188;52.324;8.032;2023-12-14T01:38:15;99836.78;;;4.79;100.00
60345;BME280;46188;52.324;8.032;2023-12-14T01:40:40;99840.31;;;4.81;100.00
60345;BME280;46188;52.324;8.032;2023-12-14T01:43:06;99839.78;;;4.95;100.00
60345;BME280;46188;52.324;8.032;2023-12-14T01:45:31;99842.25;;;4.89;100.00
60345;BME280;46188;52.324;8.032;2023-12-14T01:47:56;99843.25;;;4.94;100.00
60345;BME280;46188;52.324;8.032;2023-12-14T01:50:22;99851.28;;;5.02;100.00
60345;BME280;46188;52.324;8.032;2023-12-14T01:52:47;99853.88;;;5.02;100.00
60345;BME280;46188;52.324;8.032;2023-12-14T01:55:12;99860.78;;;4.99;100.00
60345;BME280;46188;52.324;8.032;2023-12-14T01:57:37;99865.91;;;4.96;100.00
60345;BME280;46188;52.324;8.032;2023-12-14T02:00:02;99866.81;;;4.97;100.00
60345;BME280;46188;52.324;8.032;2023-12-14T02:02:28;99870.13;;;4.90;100.00
60345;BME280;46188;52.324;8.032;2023-12-14T02:04:53;99864.09;;;4.92;100.00
60345;BME280;46188;52.324;8.032;2023-12-14T02:07:18;99871.97;;;4.94;100.00
60345;BME280;46188;52.324;8.032;2023-12-14T02:09:43;99870.28;;;4.96;100.00
60345;BME280;46188;52.324;8.032;2023-12-14T02:12:08;99866.88;;;4.98;100.00
60345;BME280;46188;52.324;8.032;2023-12-14T02:14:33;99877.16;;;4.92;100.00
60345;BME280;46188;52.324;8.032;2023-12-14T02:16:59;99882.09;;;4.81;100.00
60345;BME280;46188;52.324;8.032;2023-12-14T02:19:24;99887.28;;;4.78;100.00
60345;BME280;46188;52.324;8.032;2023-12-14T02:21:49;99888.03;;;4.74;100.00
60345;BME280;46188;52.324;8.032;2023-12-14T02:24:14;99896.78;;;4.76;100.00
60345;BME280;46188;52.324;8.032;2023-12-14T02:26:39;99901.38;;;4.85;100.00
60345;BME280;46188;52.324;8.032;2023-12-14T02:29:04;99914.56;;;4.91;100.00
60345;BME280;46188;52.324;8.032;2023-12-14T02:31:30;99917.94;;;4.87;100.00
60345;BME280;46188;52.324;8.032;2023-12-14T02:33:55;99919.53;;;4.80;100.00
60345;BME280;46188;52.324;8.032;2023-12-14T02:36:20;99921.97;;;4.74;100.00
60345;BME280;46188;52.324;8.032;2023-12-14T02:38:45;99919.31;;;4.73;100.00
60345;BME280;46188;52.324;8.032;2023-12-14T02:41:10;99925.50;;;4.76;100.00
60345;BME280;46188;52.324;8.032;2023-12-14T02:43:36;99934.91;;;4.70;100.00
60345;BME280;46188;52.324;8.032;2023-12-14T02:46:02;99937.81;;;4.80;100.00
60345;BME280;46188;52.324;8.032;2023-12-14T02:48:28;99937.59;;;4.73;100.00
60345;BME280;46188;52.324;8.032;2023-12-14T02:50:54;99942.88;;;4.74;100.00
60345;BME280;46188;52.324;8.032;2023-12-14T02:53:19;99942.88;;;4.74;100.00
60345;BME280;46188;52.324;8.032;2023-12-14T02:55:44;99942.16;;;4.80;100.00
60345;BME280;46188;52.324;8.032;2023-12-14T02:58:10;99943.69;;;4.72;100.00
60345;BME280;46188;52.324;8.032;2023-12-14T03:00:35;99947.97;;;4.70;100.00
60345;BME280;46188;52.324;8.032;2023-12-14T03:03:00;99943.63;;;4.70;100.00
60345;BME280;46188;52.324;8.032;2023-12-14T03:05:25;99947.00;;;4.66;100.00
60345;BME280;46188;52.324;8.032;2023-12-14T03:07:50;99947.66;;;4.57;100.00
60345;BME280;46188;52.324;8.032;2023-12-14T03:10:15;99947.81;;;4.64;100.00
60345;BME280;46188;52.324;8.032;2023-12-14T03:12:41;99955.59;;;4.62;100.00
60345;BME280;46188;52.324;8.032;2023-12-14T03:15:06;99955.00;;;4.72;100.00
60345;BME280;46188;52.324;8.032;2023-12-14T03:17:31;99959.34;;;4.72;100.00
60345;BME280;46188;52.324;8.032;2023-12-14T03:19:56;99962.09;;;4.78;100.00
60345;BME280;46188;52.324;8.032;2023-12-14T03:22:22;99958.56;;;4.76;100.00
60345;BME280;46188;52.324;8.032;2023-12-14T03:24:47;99962.50;;;4.60;100.00
60345;BME280;46188;52.324;8.032;2023-12-14T03:27:12;99959.19;;;4.66;100.00
60345;BME280;46188;52.324;8.032;2023-12-14T03:29:37;99959.53;;;4.79;100.00
60345;BME280;46188;52.324;8.032;2023-12-14T03:32:02;99960.28;;;4.74;100.00
60345;BME280;46188;52.324;8.032;2023-12-14T03:34:27;99967.09;;;4.69;100.00
60345;BME280;46188;52.324;8.032;2023-12-14T03:36:53;99985.09;;;4.59;100.00
60345;BME280;46188;52.324;8.032;2023-12-14T03:39:18;99993.06;;;4.64;100.00
60345;BME280;46188;52.324;8.032;2023-12-14T03:41:43;99992.25;;;4.65;100.00
60345;BME280;46188;52.324;8.032;2023-12-14T03:44:08;100001.13;;;4.72;100.00
60345;BME280;46188;52.324;8.032;2023-12-14T03:46:33;100006.31;;;4.70;100.00
60345;BME280;46188;52.324;8.032;2023-12-14T03:48:59;100012.31;;;4.68;100.00
60345;BME280;46188;52.324;8.032;2023-12-14T03:51:24;100009.84;;;4.72;100.00
60345;BME280;46188;52.324;8.032;2023-12-14T03:53:49;100016.56;;;4.64;100.00
60345;BME280;46188;52.324;8.032;2023-12-14T03:56:15;100025.31;;;4.66;100.00
60345;BME280;46188;52.324;8.032;2023-12-14T03:58:40;100026.19;;;4.67;100.00
60345;BME280;46188;52.324;8.032;2023-12-14T04:01:05;100026.09;;;4.62;100.00
60345;BME280;46188;52.324;8.032;2023-12-14T04:03:30;100024.19;;;4.56;100.00
60345;BME280;46188;52.324;8.032;2023-12-14T04:05:55;100032.91;;;4.57;100.00
60345;BME280;46188;52.324;8.032;2023-12-14T04:08:21;100036.59;;;4.64;100.00
60345;BME280;46188;52.324;8.032;2023-12-14T04:10:46;100036.25;;;4.53;100.00
60345;BME280;46188;52.324;8.032;2023-12-14T04:13:11;100043.03;;;4.46;100.00
60345;BME280;46188;52.324;8.032;2023-12-14T04:15:36;100047.34;;;4.44;100.00
60345;BME280;46188;52.324;8.032;2023-12-14T04:18:01;100049.28;;;4.51;100.00
60345;BME280;46188;52.324;8.032;2023-12-14T04:20:26;100052.81;;;4.53;100.00
60345;BME280;46188;52.324;8.032;2023-12-14T04:22:52;100071.03;;;4.52;100.00
60345;BME280;46188;52.324;8.032;2023-12-14T04:25:17;100065.34;;;4.65;100.00
60345;BME280;46188;52.324;8.032;2023-12-14T04:27:42;100062.78;;;4.68;100.00
60345;BME280;46188;52.324;8.032;2023-12-14T04:30:07;100067.97;;;4.65;100.00
60345;BME280;46188;52.324;8.032;2023-12-14T04:32:36;100085.78;;;4.50;100.00
60345;BME280;46188;52.324;8.032;2023-12-14T04:35:01;100097.13;;;4.52;100.00
60345;BME280;46188;52.324;8.032;2023-12-14T04:37:26;100098.91;;;4.53;100.00
60345;BME280;46188;52.324;8.032;2023-12-14T04:39:51;100101.81;;;4.62;100.00
60345;BME280;46188;52.324;8.032;2023-12-14T04:42:16;100103.66;;;4.66;100.00
60345;BME280;46188;52.324;8.032;2023-12-14T04:44:42;100112.50;;;4.71;100.00
60345;BME280;46188;52.324;8.032;2023-12-14T04:47:07;100115.25;;;4.76;100.00
60345;BME280;46188;52.324;8.032;2023-12-14T04:49:33;100115.91;;;4.69;100.00
60345;BME280;46188;52.324;8.032;2023-12-14T04:51:58;100123.34;;;4.55;100.00
60345;BME280;46188;52.324;8.032;2023-12-14T04:54:23;100124.16;;;4.52;100.00
60345;BME280;46188;52.324;8.032;2023-12-14T04:56:48;100126.59;;;4.48;100.00
60345;BME280;46188;52.324;8.032;2023-12-14T04:59:13;100129.41;;;4.54;100.00
60345;BME280;46188;52.324;8.032;2023-12-14T05:01:39;100133.78;;;4.55;100.00
60345;BME280;46188;52.324;8.032;2023-12-14T05:04:04;100132.72;;;4.48;100.00
60345;BME280;46188;52.324;8.032;2023-12-14T05:06:29;100138.44;;;4.36;100.00
60345;BME280;46188;52.324;8.032;2023-12-14T05:08:55;100148.94;;;4.38;100.00
60345;BME280;46188;52.324;8.032;2023-12-14T05:11:20;100150.97;;;4.48;100.00
60345;BME280;46188;52.324;8.032;2023-12-14T05:13:45;100146.38;;;4.39;100.00
60345;BME280;46188;52.324;8.032;2023-12-14T05:16:14;100143.72;;;4.38;100.00
60345;BME280;46188;52.324;8.032;2023-12-14T05:18:39;100153.13;;;4.33;100.00
60345;BME280;46188;52.324;8.032;2023-12-14T05:21:04;100150.97;;;4.19;100.00
60345;BME280;46188;52.324;8.032;2023-12-14T05:23:30;100149.84;;;4.11;100.00
60345;BME280;46188;52.324;8.032;2023-12-14T05:25:55;100166.84;;;4.25;100.00
60345;BME280;46188;52.324;8.032;2023-12-14T05:28:20;100161.72;;;4.30;100.00
60345;BME280;46188;52.324;8.032;2023-12-14T05:30:45;100164.22;;;4.25;100.00
60345;BME280;46188;52.324;8.032;2023-12-14T05:33:10;100158.94;;;4.24;100.00
60345;BME280;46188;52.324;8.032;2023-12-14T05:35:35;100165.34;;;4.34;100.00
60345;BME280;46188;52.324;8.032;2023-12-14T05:38:00;100163.25;;;4.23;100.00
60345;BME280;46188;52.324;8.032;2023-12-14T05:40:26;100175.53;;;4.26;100.00
60345;BME280;46188;52.324;8.032;2023-12-14T05:42:51;100181.84;;;4.33;100.00
60345;BME280;46188;52.324;8.032;2023-12-14T05:45:16;100183.97;;;4.17;100.00
60345;BME280;46188;52.324;8.032;2023-12-14T05:47:43;100189.31;;;4.22;100.00
60345;BME280;46188;52.324;8.032;2023-12-14T05:50:08;100196.41;;;4.26;100.00
60345;BME280;46188;52.324;8.032;2023-12-14T05:52:35;100203.63;;;4.35;100.00
60345;BME280;46188;52.324;8.032;2023-12-14T05:55:00;100208.06;;;4.37;100.00
60345;BME280;46188;52.324;8.032;2023-12-14T05:57:25;100204.53;;;4.35;100.00
60345;BME280;46188;52.324;8.032;2023-12-14T05:59:50;100204.53;;;4.35;100.00
60345;BME280;46188;52.324;8.032;2023-12-14T06:02:15;100202.09;;;4.41;100.00
60345;BME280;46188;52.324;8.032;2023-12-14T06:04:41;100208.81;;;4.33;100.00
60345;BME280;46188;52.324;8.032;2023-12-14T06:07:06;100209.66;;;4.32;100.00
60345;BME280;46188;52.324;8.032;2023-12-14T06:09:31;100206.03;;;4.29;100.00
60345;BME280;46188;52.324;8.032;2023-12-14T06:12:03;100212.00;;;4.24;100.00
60345;BME280;46188;52.324;8.032;2023-12-14T06:14:29;100213.88;;;4.29;100.00
60345;BME280;46188;52.324;8.032;2023-12-14T06:24:27;100246.28;;;3.58;100.00
60345;BME280;46188;52.324;8.032;2023-12-14T06:26:53;100248.31;;;3.67;100.00
60345;BME280;46188;52.324;8.032;2023-12-14T06:29:18;100257.47;;;3.80;100.00
60345;BME280;46188;52.324;8.032;2023-12-14T06:31:44;100254.34;;;3.90;100.00
60345;BME280;46188;52.324;8.032;2023-12-14T06:34:10;100258.16;;;4.00;100.00
60345;BME280;46188;52.324;8.032;2023-12-14T06:36:35;100265.59;;;4.15;100.00
60345;BME280;46188;52.324;8.032;2023-12-14T06:39:00;100269.94;;;4.14;100.00
60345;BME280;46188;52.324;8.032;2023-12-14T06:41:26;100281.31;;;4.16;100.00
60345;BME280;46188;52.324;8.032;2023-12-14T06:43:52;100287.16;;;4.09;100.00
60345;BME280;46188;52.324;8.032;2023-12-14T06:46:17;100294.88;;;4.06;100.00
60345;BME280;46188;52.324;8.032;2023-12-14T06:48:42;100301.91;;;4.09;100.00
60345;BME280;46188;52.324;8.032;2023-12-14T06:51:07;100307.34;;;4.15;100.00
60345;BME280;46188;52.324;8.032;2023-12-14T06:53:34;100318.72;;;4.17;100.00
60345;BME280;46188;52.324;8.032;2023-12-14T06:55:59;100318.81;;;4.20;100.00
60345;BME280;46188;52.324;8.032;2023-12-14T06:58:24;100331.97;;;4.23;100.00
60345;BME280;46188;52.324;8.032;2023-12-14T07:00:49;100336.97;;;4.17;100.00
60345;BME280;46188;52.324;8.032;2023-12-14T07:03:14;100336.94;;;4.15;100.00
60345;BME280;46188;52.324;8.032;2023-12-14T07:05:40;100339.59;;;4.17;100.00
60345;BME280;46188;52.324;8.032;2023-12-14T07:08:05;100341.84;;;4.06;100.00
60345;BME280;46188;52.324;8.032;2023-12-14T07:10:30;100343.47;;;4.02;100.00
60345;BME280;46188;52.324;8.032;2023-12-14T07:12:55;100345.50;;;4.11;100.00
60345;BME280;46188;52.324;8.032;2023-12-14T07:15:21;100348.56;;;4.25;100.00
60345;BME280;46188;52.324;8.032;2023-12-14T07:17:46;100352.16;;;4.27;100.00
60345;BME280;46188;52.324;8.032;2023-12-14T07:20:11;100361.56;;;4.23;100.00
60345;BME280;46188;52.324;8.032;2023-12-14T07:22:37;100361.91;;;4.09;100.00
60345;BME280;46188;52.324;8.032;2023-12-14T07:25:02;100373.25;;;4.09;100.00
60345;BME280;46188;52.324;8.032;2023-12-14T07:27:27;100378.47;;;4.09;100.00
60345;BME280;46188;52.324;8.032;2023-12-14T07:29:52;100382.31;;;4.19;100.00
60345;BME280;46188;52.324;8.032;2023-12-14T07:32:17;100393.78;;;4.24;100.00
60345;BME280;46188;52.324;8.032;2023-12-14T07:34:43;100387.75;;;4.27;100.00
60345;BME280;46188;52.324;8.032;2023-12-14T07:37:09;100390.22;;;4.22;100.00
60345;BME280;46188;52.324;8.032;2023-12-14T07:39:34;100399.47;;;4.14;100.00
60345;BME280;46188;52.324;8.032;2023-12-14T07:41:59;100404.63;;;4.11;100.00
60345;BME280;46188;52.324;8.032;2023-12-14T07:44:25;100413.38;;;4.13;100.00
60345;BME280;46188;52.324;8.032;2023-12-14T07:46:50;100417.09;;;4.19;100.00
60345;BME280;46188;52.324;8.032;2023-12-14T07:49:16;100415.38;;;4.20;100.00
60345;BME280;46188;52.324;8.032;2023-12-14T07:51:45;100426.75;;;4.22;100.00
60345;BME280;46188;52.324;8.032;2023-12-14T07:54:10;100418.91;;;4.22;100.00
60345;BME280;46188;52.324;8.032;2023-12-14T07:56:35;100426.16;;;4.29;100.00
60345;BME280;46188;52.324;8.032;2023-12-14T07:59:00;100431.75;;;4.16;100.00
60345;BME280;46188;52.324;8.032;2023-12-14T08:01:26;100435.47;;;4.22;100.00
60345;BME280;46188;52.324;8.032;2023-12-14T08:03:51;100431.59;;;4.11;100.00
60345;BME280;46188;52.324;8.032;2023-12-14T08:06:16;100439.28;;;4.08;100.00
60345;BME280;46188;52.324;8.032;2023-12-14T08:08:41;100440.91;;;4.04;100.00
60345;BME280;46188;52.324;8.032;2023-12-14T08:11:07;100453.78;;;4.00;100.00
60345;BME280;46188;52.324;8.032;2023-12-14T08:13:32;100452.16;;;4.03;100.00
60345;BME280;46188;52.324;8.032;2023-12-14T08:15:57;100457.44;;;4.05;100.00
60345;BME280;46188;52.324;8.032;2023-12-14T08:18:23;100460.16;;;4.08;100.00
60345;BME280;46188;52.324;8.032;2023-12-14T08:20:48;100459.22;;;4.06;100.00
60345;BME280;46188;52.324;8.032;2023-12-14T08:23:13;100458.84;;;4.19;100.00
60345;BME280;46188;52.324;8.032;2023-12-14T08:25:38;100461.44;;;4.19;100.00
60345;BME280;46188;52.324;8.032;2023-12-14T08:28:04;100464.63;;;4.11;100.00
60345;BME280;46188;52.324;8.032;2023-12-14T08:30:29;100473.94;;;4.04;100.00
60345;BME280;46188;52.324;8.032;2023-12-14T08:32:55;100472.28;;;4.06;100.00
60345;BME280;46188;52.324;8.032;2023-12-14T08:35:20;100476.59;;;4.05;100.00
60345;BME280;46188;52.324;8.032;2023-12-14T08:37:46;100487.13;;;4.09;100.00
60345;BME280;46188;52.324;8.032;2023-12-14T08:40:11;100480.09;;;4.06;100.00
60345;BME280;46188;52.324;8.032;2023-12-14T08:42:36;100500.91;;;4.04;100.00
60345;BME280;46188;52.324;8.032;2023-12-14T08:45:02;100504.34;;;4.03;100.00
60345;BME280;46188;52.324;8.032;2023-12-14T08:47:27;100500.09;;;4.05;100.00
60345;BME280;46188;52.324;8.032;2023-12-14T08:49:52;100511.59;;;4.11;100.00
60345;BME280;46188;52.324;8.032;2023-12-14T08:52:18;100517.06;;;4.18;100.00
60345;BME280;46188;52.324;8.032;2023-12-14T08:54:43;100513.34;;;4.12;100.00
60345;BME280;46188;52.324;8.032;2023-12-14T08:57:09;100517.78;;;4.14;100.00
60345;BME280;46188;52.324;8.032;2023-12-14T08:59:34;100520.53;;;4.17;100.00
60345;BME280;46188;52.324;8.032;2023-12-14T09:01:59;100517.06;;;4.18;100.00
60345;BME280;46188;52.324;8.032;2023-12-14T09:04:25;100525.88;;;4.20;100.00
60345;BME280;46188;52.324;8.032;2023-12-14T09:06:50;100529.41;;;4.22;100.00
60345;BME280;46188;52.324;8.032;2023-12-14T09:09:16;100530.28;;;4.23;100.00
60345;BME280;46188;52.324;8.032;2023-12-14T09:11:43;100535.56;;;4.24;100.00
60345;BME280;46188;52.324;8.032;2023-12-14T09:14:08;100537.75;;;4.36;100.00
60345;BME280;46188;52.324;8.032;2023-12-14T09:16:33;100542.13;;;4.37;100.00
60345;BME280;46188;52.324;8.032;2023-12-14T09:18:59;100544.88;;;4.40;100.00
60345;BME280;46188;52.324;8.032;2023-12-14T09:21:24;100555.44;;;4.45;100.00
60345;BME280;46188;52.324;8.032;2023-12-14T09:23:49;100552.69;;;4.40;100.00
60345;BME280;46188;52.324;8.032;2023-12-14T09:26:15;100559.91;;;4.48;100.00
60345;BME280;46188;52.324;8.032;2023-12-14T09:28:40;100560.66;;;4.43;100.00
60345;BME280;46188;52.324;8.032;2023-12-14T09:31:07;100557.31;;;4.48;100.00
60345;BME280;46188;52.324;8.032;2023-12-14T09:33:32;100557.72;;;4.58;100.00
60345;BME280;46188;52.324;8.032;2023-12-14T09:35:57;100557.72;;;4.58;100.00
60345;BME280;46188;52.324;8.032;2023-12-14T09:38:23;100564.63;;;4.58;100.00
60345;BME280;46188;52.324;8.032;2023-12-14T09:40:48;100574.50;;;4.65;100.00
60345;BME280;46188;52.324;8.032;2023-12-14T09:43:13;100587.38;;;4.60;100.00
60345;BME280;46188;52.324;8.032;2023-12-14T09:45:38;100586.47;;;4.60;100.00
60345;BME280;46188;52.324;8.032;2023-12-14T09:48:06;100581.22;;;4.58;100.00
60345;BME280;46188;52.324;8.032;2023-12-14T09:50:33;100588.75;;;4.51;100.00
60345;BME280;46188;52.324;8.032;2023-12-14T09:52:58;100584.13;;;4.43;100.00
60345;BME280;46188;52.324;8.032;2023-12-14T09:55:24;100592.19;;;4.50;100.00
60345;BME280;46188;52.324;8.032;2023-12-14T09:57:49;100592.91;;;4.46;100.00
60345;BME280;46188;52.324;8.032;2023-12-14T10:00:30;100602.75;;;4.53;100.00
60345;BME280;46188;52.324;8.032;2023-12-14T10:02:57;100599.63;;;4.63;100.00
60345;BME280;46188;52.324;8.032;2023-12-14T10:05:22;100609.03;;;4.58;100.00
60345;BME280;46188;52.324;8.032;2023-12-14T10:07:47;100607.97;;;4.53;100.00
60345;BME280;46188;52.324;8.032;2023-12-14T10:10:13;100611.50;;;4.55;100.00
60345;BME280;46188;52.324;8.032;2023-12-14T10:12:51;100618.41;;;4.53;100.00
60345;BME280;46188;52.324;8.032;2023-12-14T10:15:18;100619.22;;;4.52;100.00
60345;BME280;46188;52.324;8.032;2023-12-14T10:17:43;100612.47;;;4.57;100.00
60345;BME280;46188;52.324;8.032;2023-12-14T10:20:08;100622.50;;;4.69;100.00
60345;BME280;46188;52.324;8.032;2023-12-14T10:22:34;100620.53;;;4.63;100.00
60345;BME280;46188;52.324;8.032;2023-12-14T10:25:02;100628.53;;;4.68;100.00
60345;BME280;46188;52.324;8.032;2023-12-14T10:27:27;100630.81;;;4.58;100.00
60345;BME280;46188;52.324;8.032;2023-12-14T10:29:52;100645.38;;;4.53;100.00
60345;BME280;46188;52.324;8.032;2023-12-14T10:32:18;100644.63;;;4.56;100.00
60345;BME280;46188;52.324;8.032;2023-12-14T10:34:43;100640.22;;;4.55;100.00
60345;BME280;46188;52.324;8.032;2023-12-14T10:37:08;100649.03;;;4.57;100.00
60345;BME280;46188;52.324;8.032;2023-12-14T10:39:34;100643.44;;;4.70;100.00
60345;BME280;46188;52.324;8.032;2023-12-14T10:42:00;100656.38;;;4.67;100.00
60345;BME280;46188;52.324;8.032;2023-12-14T10:44:27;100663.03;;;4.59;100.00
60345;BME280;46188;52.324;8.032;2023-12-14T10:46:54;100659.00;;;4.67;100.00
60345;BME280;46188;52.324;8.032;2023-12-14T10:49:21;100660.34;;;4.57;100.00
60345;BME280;46188;52.324;8.032;2023-12-14T10:51:47;100662.78;;;4.53;100.00
60345;BME280;46188;52.324;8.032;2023-12-14T10:54:12;100662.91;;;4.56;100.00
60345;BME280;46188;52.324;8.032;2023-12-14T10:56:38;100656.81;;;4.55;100.00
60345;BME280;46188;52.324;8.032;2023-12-14T10:59:03;100656.00;;;4.58;100.00
60345;BME280;46188;52.324;8.032;2023-12-14T11:01:28;100660.41;;;4.59;100.00
60345;BME280;46188;52.324;8.032;2023-12-14T11:03:58;100658.88;;;4.64;100.00
60345;BME280;46188;52.324;8.032;2023-12-14T11:06:30;100664.16;;;4.66;100.00
60345;BME280;46188;52.324;8.032;2023-12-14T11:09:04;100663.41;;;4.70;100.00
60345;BME280;46188;52.324;8.032;2023-12-14T11:11:38;100656.38;;;4.67;100.00
60345;BME280;46188;52.324;8.032;2023-12-14T11:14:04;100671.44;;;4.74;100.00
60345;BME280;46188;52.324;8.032;2023-12-14T11:16:33;100682.13;;;4.80;100.00
60345;BME280;46188;52.324;8.032;2023-12-14T11:21:42;100677.47;;;4.96;100.00
60345;BME280;46188;52.324;8.032;2023-12-14T11:24:07;100681.75;;;4.94;100.00
60345;BME280;46188;52.324;8.032;2023-12-14T11:26:32;100695.03;;;5.00;100.00
60345;BME280;46188;52.324;8.032;2023-12-14T11:28:58;100693.38;;;5.02;100.00
60345;BME280;46188;52.324;8.032;2023-12-14T11:31:23;100708.16;;;5.02;100.00
60345;BME280;46188;52.324;8.032;2023-12-14T11:33:49;100718.88;;;5.09;100.00
60345;BME280;46188;52.324;8.032;2023-12-14T11:36:14;100711.53;;;4.99;100.00
60345;BME280;46188;52.324;8.032;2023-12-14T11:38:39;100720.75;;;4.89;100.00
60345;BME280;46188;52.324;8.032;2023-12-14T11:41:05;100723.78;;;5.00;100.00
60345;BME280;46188;52.324;8.032;2023-12-14T11:43:38;100726.09;;;4.92;100.00
60345;BME280;46188;52.324;8.032;2023-12-14T11:46:03;100726.34;;;4.98;100.00
60345;BME280;46188;52.324;8.032;2023-12-14T11:48:28;100728.09;;;4.99;100.00
60345;BME280;46188;52.324;8.032;2023-12-14T11:50:53;100727.50;;;5.07;100.00
60345;BME280;46188;52.324;8.032;2023-12-14T11:53:19;100736.59;;;5.16;100.00
60345;BME280;46188;52.324;8.032;2023-12-14T11:55:44;100731.69;;;5.26;100.00
60345;BME280;46188;52.324;8.032;2023-12-14T11:58:11;100730.81;;;5.25;100.00
60345;BME280;46188;52.324;8.032;2023-12-14T12:00:36;100732.56;;;5.02;100.00
60345;BME280;46188;52.324;8.032;2023-12-14T12:03:17;100740.09;;;4.94;100.00
60345;BME280;46188;52.324;8.032;2023-12-14T12:05:45;100742.38;;;4.85;100.00
60345;BME280;46188;52.324;8.032;2023-12-14T12:08:10;100737.22;;;4.87;100.00
60345;BME280;46188;52.324;8.032;2023-12-14T12:10:36;100735.78;;;4.95;100.00
60345;BME280;46188;52.324;8.032;2023-12-14T12:13:02;100740.88;;;4.92;100.00
60345;BME280;46188;52.324;8.032;2023-12-14T12:15:29;100744.25;;;4.89;100.00
60345;BME280;46188;52.324;8.032;2023-12-14T12:17:56;100740.78;;;4.89;100.00
60345;BME280;46188;52.324;8.032;2023-12-14T12:20:21;100742.13;;;5.02;100.00
60345;BME280;46188;52.324;8.032;2023-12-14T12:22:46;100748.47;;;5.08;100.00
60345;BME280;46188;52.324;8.032;2023-12-14T12:25:11;100742.53;;;5.12;100.00
60345;BME280;46188;52.324;8.032;2023-12-14T12:27:37;100745.88;;;5.08;100.00
60345;BME280;46188;52.324;8.032;2023-12-14T12:30:02;100734.34;;;5.03;100.00
60345;BME280;46188;52.324;8.032;2023-12-14T12:32:28;100747.34;;;5.02;100.00
60345;BME280;46188;52.324;8.032;2023-12-14T12:34:53;100741.84;;;4.94;100.00
60345;BME280;46188;52.324;8.032;2023-12-14T12:37:19;100741.84;;;4.94;100.00
60345;BME280;46188;52.324;8.032;2023-12-14T12:39:44;100741.34;;;5.04;100.00
60345;BME280;46188;52.324;8.032;2023-12-14T12:42:09;100736.59;;;4.94;100.00
60345;BME280;46188;52.324;8.032;2023-12-14T12:44:34;100731.19;;;4.89;100.00
60345;BME280;46188;52.324;8.032;2023-12-14T12:46:59;100731.38;;;4.94;100.00
60345;BME280;46188;52.324;8.032;2023-12-14T12:49:25;100739.47;;;5.00;100.00
60345;BME280;46188;52.324;8.032;2023-12-14T12:51:50;100741.88;;;4.95;100.00
60345;BME280;46188;52.324;8.032;2023-12-14T12:54:15;100743.66;;;4.96;100.00